sensor_id;sensor_type;location;lat;lon;timestamp;P1;durP1;ratioP1;P2;durP2;ratioP2
47922;SDS011;33688;44.354;9.228;2024-02-21T00:00:48;3.83;;;3.20;;
47922;SDS011;33688;44.354;9.228;2024-02-21T00:03:14;3.30;;;3.00;;
47922;SDS011;33688;44.354;9.228;2024-02-21T00:05:43;3.85;;;3.33;;
47922;SDS011;33688;44.354;9.228;2024-02-21T00:08:09;4.30;;;3.63;;
47922;SDS011;33688;44.354;9.228;2024-02-21T00:10:36;5.40;;;3.40;;
47922;SDS011;33688;44.354;9.228;2024-02-21T00:13:02;3.83;;;3.42;;
47922;SDS011;33688;44.354;9.228;2024-02-21T00:15:28;3.25;;;2.72;;
47922;SDS011;33688;44.354;9.228;2024-02-21T00:17:54;4.45;;;3.10;;
47922;SDS011;33688;44.354;9.228;2024-02-21T00:20:20;3.85;;;3.45;;
47922;SDS011;33688;44.354;9.228;2024-02-21T00:22:46;3.65;;;3.30;;
47922;SDS011;33688;44.354;9.228;2024-02-21T00:25:12;4.05;;;3.10;;
47922;SDS011;33688;44.354;9.228;2024-02-21T00:27:38;4.05;;;3.35;;
47922;SDS011;33688;44.354;9.228;2024-02-21T00:30:04;3.28;;;2.97;;
47922;SDS011;33688;44.354;9.228;2024-02-21T00:32:31;3.55;;;3.25;;
47922;SDS011;33688;44.354;9.228;2024-02-21T00:34:59;3.65;;;3.30;;
47922;SDS011;33688;44.354;9.228;2024-02-21T00:37:25;4.15;;;3.33;;
47922;SDS011;33688;44.354;9.228;2024-02-21T00:39:50;3.40;;;3.10;;
47922;SDS011;33688;44.354;9.228;2024-02-21T00:42:18;3.42;;;3.10;;
47922;SDS011;33688;44.354;9.228;2024-02-21T00:44:44;3.67;;;3.13;;
47922;SDS011;33688;44.354;9.228;2024-02-21T00:47:10;3.50;;;2.92;;
47922;SDS011;33688;44.354;9.228;2024-02-21T00:49:36;3.15;;;2.85;;
47922;SDS011;33688;44.354;9.228;2024-02-21T00:52:03;3.58;;;3.28;;
47922;SDS011;33688;44.354;9.228;2024-02-21T00:54:29;3.40;;;3.10;;
47922;SDS011;33688;44.354;9.228;2024-02-21T00:56:55;3.10;;;2.83;;
47922;SDS011;33688;44.354;9.228;2024-02-21T00:59:21;3.45;;;2.75;;
47922;SDS011;33688;44.354;9.228;2024-02-21T01:01:47;3.03;;;2.72;;
47922;SDS011;33688;44.354;9.228;2024-02-21T01:04:13;4.95;;;2.90;;
47922;SDS011;33688;44.354;9.228;2024-02-21T01:06:39;3.13;;;2.83;;
47922;SDS011;33688;44.354;9.228;2024-02-21T01:09:08;3.47;;;3.17;;
47922;SDS011;33688;44.354;9.228;2024-02-21T01:11:33;3.20;;;2.97;;
47922;SDS011;33688;44.354;9.228;2024-02-21T01:13:59;3.55;;;3.03;;
47922;SDS011;33688;44.354;9.228;2024-02-21T01:16:25;3.00;;;2.78;;
47922;SDS011;33688;44.354;9.228;2024-02-21T01:18:51;3.05;;;2.75;;
47922;SDS011;33688;44.354;9.228;2024-02-21T01:21:17;2.97;;;2.63;;
47922;SDS011;33688;44.354;9.228;2024-02-21T01:23:43;3.28;;;2.85;;
47922;SDS011;33688;44.354;9.228;2024-02-21T01:26:09;3.17;;;2.85;;
47922;SDS011;33688;44.354;9.228;2024-02-21T01:28:40;2.97;;;2.67;;
47922;SDS011;33688;44.354;9.228;2024-02-21T01:31:06;3.20;;;2.90;;
47922;SDS011;33688;44.354;9.228;2024-02-21T01:33:32;2.58;;;2.35;;
47922;SDS011;33688;44.354;9.228;2024-02-21T01:36:01;3.50;;;3.20;;
47922;SDS011;33688;44.354;9.228;2024-02-21T01:38:28;3.17;;;2.88;;
47922;SDS011;33688;44.354;9.228;2024-02-21T01:40:54;3.40;;;3.00;;
47922;SDS011;33688;44.354;9.228;2024-02-21T01:43:20;3.85;;;3.35;;
47922;SDS011;33688;44.354;9.228;2024-02-21T01:45:47;3.08;;;2.78;;
47922;SDS011;33688;44.354;9.228;2024-02-21T01:48:16;2.92;;;2.70;;
47922;SDS011;33688;44.354;9.228;2024-02-21T01:50:44;3.92;;;3.13;;
47922;SDS011;33688;44.354;9.228;2024-02-21T01:53:11;2.80;;;2.50;;
47922;SDS011;33688;44.354;9.228;2024-02-21T01:55:46;2.67;;;2.47;;
47922;SDS011;33688;44.354;9.228;2024-02-21T01:58:13;3.35;;;3.05;;
47922;SDS011;33688;44.354;9.228;2024-02-21T02:00:43;3.20;;;2.80;;
47922;SDS011;33688;44.354;9.228;2024-02-21T02:03:11;3.30;;;3.00;;
47922;SDS011;33688;44.354;9.228;2024-02-21T02:05:43;3.55;;;2.85;;
47922;SDS011;33688;44.354;9.228;2024-02-21T02:08:15;3.22;;;2.92;;
47922;SDS011;33688;44.354;9.228;2024-02-21T02:10:42;3.25;;;2.92;;
47922;SDS011;33688;44.354;9.228;2024-02-21T02:13:10;2.88;;;2.58;;
47922;SDS011;33688;44.354;9.228;2024-02-21T02:15:47;3.20;;;2.90;;
47922;SDS011;33688;44.354;9.228;2024-02-21T02:18:15;2.70;;;2.50;;
47922;SDS011;33688;44.354;9.228;2024-02-21T02:20:43;2.67;;;2.47;;
47922;SDS011;33688;44.354;9.228;2024-02-21T02:23:26;3.25;;;2.95;;
47922;SDS011;33688;44.354;9.228;2024-02-21T02:25:57;4.57;;;2.85;;
47922;SDS011;33688;44.354;9.228;2024-02-21T02:28:24;3.15;;;2.83;;
47922;SDS011;33688;44.354;9.228;2024-02-21T02:30:50;4.38;;;2.90;;
47922;SDS011;33688;44.354;9.228;2024-02-21T02:33:17;3.42;;;2.90;;
47922;SDS011;33688;44.354;9.228;2024-02-21T02:35:43;3.05;;;2.70;;
47922;SDS011;33688;44.354;9.228;2024-02-21T02:38:09;4.03;;;2.72;;
47922;SDS011;33688;44.354;9.228;2024-02-21T02:40:37;2.90;;;2.60;;
47922;SDS011;33688;44.354;9.228;2024-02-21T02:43:04;2.78;;;2.42;;
47922;SDS011;33688;44.354;9.228;2024-02-21T02:45:30;4.47;;;2.50;;
47922;SDS011;33688;44.354;9.228;2024-02-21T02:47:56;2.70;;;2.50;;
47922;SDS011;33688;44.354;9.228;2024-02-21T02:50:23;2.63;;;2.42;;
47922;SDS011;33688;44.354;9.228;2024-02-21T02:52:50;2.92;;;2.65;;
47922;SDS011;33688;44.354;9.228;2024-02-21T02:55:16;3.00;;;2.70;;
47922;SDS011;33688;44.354;9.228;2024-02-21T02:57:42;3.08;;;2.78;;
47922;SDS011;33688;44.354;9.228;2024-02-21T03:00:08;3.20;;;2.72;;
47922;SDS011;33688;44.354;9.228;2024-02-21T03:02:39;2.97;;;2.67;;
47922;SDS011;33688;44.354;9.228;2024-02-21T03:05:14;2.83;;;2.40;;
47922;SDS011;33688;44.354;9.228;2024-02-21T03:07:45;3.72;;;2.85;;
47922;SDS011;33688;44.354;9.228;2024-02-21T03:10:12;2.65;;;2.45;;
47922;SDS011;33688;44.354;9.228;2024-02-21T03:12:38;2.80;;;2.60;;
47922;SDS011;33688;44.354;9.228;2024-02-21T03:15:05;3.22;;;2.40;;
47922;SDS011;33688;44.354;9.228;2024-02-21T03:17:31;3.28;;;2.90;;
47922;SDS011;33688;44.354;9.228;2024-02-21T03:20:04;3.10;;;2.80;;
47922;SDS011;33688;44.354;9.228;2024-02-21T03:22:34;2.65;;;2.45;;
47922;SDS011;33688;44.354;9.228;2024-02-21T03:25:00;2.65;;;2.45;;
47922;SDS011;33688;44.354;9.228;2024-02-21T03:27:26;3.30;;;3.00;;
47922;SDS011;33688;44.354;9.228;2024-02-21T03:29:52;4.00;;;2.53;;
47922;SDS011;33688;44.354;9.228;2024-02-21T03:32:19;2.55;;;2.35;;
47922;SDS011;33688;44.354;9.228;2024-02-21T03:34:44;2.60;;;2.40;;
47922;SDS011;33688;44.354;9.228;2024-02-21T03:37:10;2.55;;;2.35;;
47922;SDS011;33688;44.354;9.228;2024-02-21T03:39:37;2.83;;;2.20;;
47922;SDS011;33688;44.354;9.228;2024-02-21T03:42:02;2.63;;;2.42;;
47922;SDS011;33688;44.354;9.228;2024-02-21T03:44:32;2.30;;;2.10;;
47922;SDS011;33688;44.354;9.228;2024-02-21T03:46:59;2.55;;;2.30;;
47922;SDS011;33688;44.354;9.228;2024-02-21T03:49:25;2.83;;;2.00;;
47922;SDS011;33688;44.354;9.228;2024-02-21T03:51:51;2.30;;;2.10;;
47922;SDS011;33688;44.354;9.228;2024-02-21T03:54:18;2.58;;;2.38;;
47922;SDS011;33688;44.354;9.228;2024-02-21T03:56:44;2.53;;;2.25;;
47922;SDS011;33688;44.354;9.228;2024-02-21T03:59:11;2.60;;;2.40;;
47922;SDS011;33688;44.354;9.228;2024-02-21T04:01:37;2.30;;;2.10;;
47922;SDS011;33688;44.354;9.228;2024-02-21T04:04:03;3.95;;;2.65;;
47922;SDS011;33688;44.354;9.228;2024-02-21T04:06:29;2.80;;;2.58;;
47922;SDS011;33688;44.354;9.228;2024-02-21T04:08:56;2.45;;;2.25;;
47922;SDS011;33688;44.354;9.228;2024-02-21T04:11:22;2.20;;;2.00;;
47922;SDS011;33688;44.354;9.228;2024-02-21T04:13:48;2.42;;;2.13;;
47922;SDS011;33688;44.354;9.228;2024-02-21T04:16:15;2.83;;;2.45;;
47922;SDS011;33688;44.354;9.228;2024-02-21T04:18:43;2.60;;;2.25;;
47922;SDS011;33688;44.354;9.228;2024-02-21T04:21:09;3.10;;;2.30;;
47922;SDS011;33688;44.354;9.228;2024-02-21T04:23:35;2.45;;;2.15;;
47922;SDS011;33688;44.354;9.228;2024-02-21T04:26:01;2.28;;;2.08;;
47922;SDS011;33688;44.354;9.228;2024-02-21T04:28:27;2.90;;;2.58;;
47922;SDS011;33688;44.354;9.228;2024-02-21T04:30:53;2.83;;;2.40;;
47922;SDS011;33688;44.354;9.228;2024-02-21T04:33:18;2.42;;;2.22;;
47922;SDS011;33688;44.354;9.228;2024-02-21T04:35:44;2.40;;;2.20;;
47922;SDS011;33688;44.354;9.228;2024-02-21T04:38:10;2.20;;;2.00;;
47922;SDS011;33688;44.354;9.228;2024-02-21T04:40:36;2.60;;;2.30;;
47922;SDS011;33688;44.354;9.228;2024-02-21T04:43:02;2.38;;;2.17;;
47922;SDS011;33688;44.354;9.228;2024-02-21T04:45:28;2.25;;;1.73;;
47922;SDS011;33688;44.354;9.228;2024-02-21T04:47:54;2.63;;;2.42;;
47922;SDS011;33688;44.354;9.228;2024-02-21T04:50:20;3.05;;;2.00;;
47922;SDS011;33688;44.354;9.228;2024-02-21T04:52:46;2.72;;;2.47;;
47922;SDS011;33688;44.354;9.228;2024-02-21T04:55:11;2.72;;;2.28;;
47922;SDS011;33688;44.354;9.228;2024-02-21T04:57:37;2.83;;;2.20;;
47922;SDS011;33688;44.354;9.228;2024-02-21T05:00:03;2.40;;;2.20;;
47922;SDS011;33688;44.354;9.228;2024-02-21T05:02:32;2.20;;;2.00;;
47922;SDS011;33688;44.354;9.228;2024-02-21T05:04:57;2.28;;;2.08;;
47922;SDS011;33688;44.354;9.228;2024-02-21T05:07:23;2.42;;;2.08;;
47922;SDS011;33688;44.354;9.228;2024-02-21T05:09:49;2.03;;;1.83;;
47922;SDS011;33688;44.354;9.228;2024-02-21T05:12:16;2.42;;;2.22;;
47922;SDS011;33688;44.354;9.228;2024-02-21T05:14:41;2.42;;;2.22;;
47922;SDS011;33688;44.354;9.228;2024-02-21T05:17:07;2.50;;;2.30;;
47922;SDS011;33688;44.354;9.228;2024-02-21T05:19:34;2.47;;;2.28;;
47922;SDS011;33688;44.354;9.228;2024-02-21T05:22:00;2.53;;;2.20;;
47922;SDS011;33688;44.354;9.228;2024-02-21T05:24:25;2.00;;;1.90;;
47922;SDS011;33688;44.354;9.228;2024-02-21T05:26:51;2.80;;;2.35;;
47922;SDS011;33688;44.354;9.228;2024-02-21T05:29:18;2.13;;;1.92;;
47922;SDS011;33688;44.354;9.228;2024-02-21T05:34:16;2.17;;;1.98;;
47922;SDS011;33688;44.354;9.228;2024-02-21T05:36:42;2.30;;;2.10;;
47922;SDS011;33688;44.354;9.228;2024-02-21T05:39:08;2.30;;;2.08;;
47922;SDS011;33688;44.354;9.228;2024-02-21T05:41:34;2.13;;;1.88;;
47922;SDS011;33688;44.354;9.228;2024-02-21T05:44:00;2.50;;;2.30;;
47922;SDS011;33688;44.354;9.228;2024-02-21T05:46:25;2.85;;;2.33;;
47922;SDS011;33688;44.354;9.228;2024-02-21T05:48:52;2.38;;;2.10;;
47922;SDS011;33688;44.354;9.228;2024-02-21T05:51:18;4.40;;;2.38;;
47922;SDS011;33688;44.354;9.228;2024-02-21T05:53:43;3.33;;;2.17;;
47922;SDS011;33688;44.354;9.228;2024-02-21T05:56:10;1.85;;;1.75;;
47922;SDS011;33688;44.354;9.228;2024-02-21T05:58:37;2.40;;;2.20;;
47922;SDS011;33688;44.354;9.228;2024-02-21T06:01:03;2.20;;;2.00;;
47922;SDS011;33688;44.354;9.228;2024-02-21T06:03:30;2.35;;;2.00;;
47922;SDS011;33688;44.354;9.228;2024-02-21T06:05:56;2.97;;;2.55;;
47922;SDS011;33688;44.354;9.228;2024-02-21T06:08:21;2.22;;;2.03;;
47922;SDS011;33688;44.354;9.228;2024-02-21T06:10:48;2.10;;;1.90;;
47922;SDS011;33688;44.354;9.228;2024-02-21T06:13:14;2.30;;;2.10;;
47922;SDS011;33688;44.354;9.228;2024-02-21T06:15:40;2.90;;;2.08;;
47922;SDS011;33688;44.354;9.228;2024-02-21T06:18:06;1.98;;;1.77;;
47922;SDS011;33688;44.354;9.228;2024-02-21T06:20:32;2.45;;;2.25;;
47922;SDS011;33688;44.354;9.228;2024-02-21T06:22:58;2.08;;;1.83;;
47922;SDS011;33688;44.354;9.228;2024-02-21T06:25:23;2.20;;;2.10;;
47922;SDS011;33688;44.354;9.228;2024-02-21T06:27:49;1.90;;;1.80;;
47922;SDS011;33688;44.354;9.228;2024-02-21T06:30:15;2.40;;;2.10;;
47922;SDS011;33688;44.354;9.228;2024-02-21T06:32:41;2.33;;;2.13;;
47922;SDS011;33688;44.354;9.228;2024-02-21T06:35:07;1.88;;;1.77;;
47922;SDS011;33688;44.354;9.228;2024-02-21T06:37:33;2.45;;;2.10;;
47922;SDS011;33688;44.354;9.228;2024-02-21T06:39:59;2.17;;;1.98;;
47922;SDS011;33688;44.354;9.228;2024-02-21T06:42:25;2.13;;;1.92;;
47922;SDS011;33688;44.354;9.228;2024-02-21T06:44:51;2.13;;;1.90;;
47922;SDS011;33688;44.354;9.228;2024-02-21T06:47:17;2.55;;;2.35;;
47922;SDS011;33688;44.354;9.228;2024-02-21T06:49:43;1.83;;;1.73;;
47922;SDS011;33688;44.354;9.228;2024-02-21T06:52:15;2.17;;;1.98;;
47922;SDS011;33688;44.354;9.228;2024-02-21T06:54:42;2.22;;;2.03;;
47922;SDS011;33688;44.354;9.228;2024-02-21T06:57:08;2.40;;;2.10;;
47922;SDS011;33688;44.354;9.228;2024-02-21T06:59:34;3.10;;;2.58;;
47922;SDS011;33688;44.354;9.228;2024-02-21T07:01:59;2.38;;;1.95;;
47922;SDS011;33688;44.354;9.228;2024-02-21T07:04:27;2.30;;;1.92;;
47922;SDS011;33688;44.354;9.228;2024-02-21T07:06:54;2.35;;;2.15;;
47922;SDS011;33688;44.354;9.228;2024-02-21T07:09:20;2.53;;;2.33;;
47922;SDS011;33688;44.354;9.228;2024-02-21T07:11:46;2.42;;;1.77;;
47922;SDS011;33688;44.354;9.228;2024-02-21T07:14:13;4.55;;;2.05;;
47922;SDS011;33688;44.354;9.228;2024-02-21T07:16:40;2.20;;;2.00;;
47922;SDS011;33688;44.354;9.228;2024-02-21T07:19:06;2.35;;;2.15;;
47922;SDS011;33688;44.354;9.228;2024-02-21T07:21:32;6.28;;;2.00;;
47922;SDS011;33688;44.354;9.228;2024-02-21T07:23:58;2.42;;;2.22;;
47922;SDS011;33688;44.354;9.228;2024-02-21T07:26:23;2.42;;;2.22;;
47922;SDS011;33688;44.354;9.228;2024-02-21T07:28:50;2.42;;;2.22;;
47922;SDS011;33688;44.354;9.228;2024-02-21T07:31:16;2.42;;;2.22;;
47922;SDS011;33688;44.354;9.228;2024-02-21T07:33:43;2.45;;;2.25;;
47922;SDS011;33688;44.354;9.228;2024-02-21T07:36:10;2.28;;;1.90;;
47922;SDS011;33688;44.354;9.228;2024-02-21T07:38:36;1.92;;;1.77;;
47922;SDS011;33688;44.354;9.228;2024-02-21T07:41:05;2.10;;;1.90;;
47922;SDS011;33688;44.354;9.228;2024-02-21T07:43:31;2.30;;;2.10;;
47922;SDS011;33688;44.354;9.228;2024-02-21T07:45:56;2.55;;;2.20;;
47922;SDS011;33688;44.354;9.228;2024-02-21T07:48:22;2.33;;;2.13;;
47922;SDS011;33688;44.354;9.228;2024-02-21T07:50:51;4.30;;;2.28;;
47922;SDS011;33688;44.354;9.228;2024-02-21T07:53:19;2.17;;;1.92;;
47922;SDS011;33688;44.354;9.228;2024-02-21T07:55:46;2.22;;;2.03;;
47922;SDS011;33688;44.354;9.228;2024-02-21T07:58:12;2.47;;;2.25;;
47922;SDS011;33688;44.354;9.228;2024-02-21T08:00:38;2.63;;;2.08;;
47922;SDS011;33688;44.354;9.228;2024-02-21T08:03:04;2.65;;;1.80;;
47922;SDS011;33688;44.354;9.228;2024-02-21T08:05:30;2.35;;;2.15;;
47922;SDS011;33688;44.354;9.228;2024-02-21T08:07:55;2.70;;;2.50;;
47922;SDS011;33688;44.354;9.228;2024-02-21T08:10:21;2.88;;;2.67;;
47922;SDS011;33688;44.354;9.228;2024-02-21T08:12:47;2.97;;;2.10;;
47922;SDS011;33688;44.354;9.228;2024-02-21T08:15:13;4.05;;;2.50;;
47922;SDS011;33688;44.354;9.228;2024-02-21T08:17:40;3.90;;;2.40;;
47922;SDS011;33688;44.354;9.228;2024-02-21T08:20:06;4.35;;;2.50;;
47922;SDS011;33688;44.354;9.228;2024-02-21T08:22:36;2.65;;;2.28;;
47922;SDS011;33688;44.354;9.228;2024-02-21T08:25:03;3.13;;;2.45;;
47922;SDS011;33688;44.354;9.228;2024-02-21T08:27:30;2.30;;;2.10;;
47922;SDS011;33688;44.354;9.228;2024-02-21T08:29:56;2.78;;;2.25;;
47922;SDS011;33688;44.354;9.228;2024-02-21T08:32:22;2.72;;;2.22;;
47922;SDS011;33688;44.354;9.228;2024-02-21T08:34:48;3.05;;;2.53;;
47922;SDS011;33688;44.354;9.228;2024-02-21T08:37:13;4.45;;;2.15;;
47922;SDS011;33688;44.354;9.228;2024-02-21T08:39:39;3.08;;;2.30;;
47922;SDS011;33688;44.354;9.228;2024-02-21T08:42:05;3.80;;;2.50;;
47922;SDS011;33688;44.354;9.228;2024-02-21T08:44:31;2.30;;;2.10;;
47922;SDS011;33688;44.354;9.228;2024-02-21T08:46:57;2.97;;;2.47;;
47922;SDS011;33688;44.354;9.228;2024-02-21T08:49:22;2.60;;;2.25;;
47922;SDS011;33688;44.354;9.228;2024-02-21T08:51:48;2.08;;;1.88;;
47922;SDS011;33688;44.354;9.228;2024-02-21T08:54:14;4.25;;;2.28;;
47922;SDS011;33688;44.354;9.228;2024-02-21T08:56:39;15.25;;;3.05;;
47922;SDS011;33688;44.354;9.228;2024-02-21T08:59:05;2.80;;;2.20;;
47922;SDS011;33688;44.354;9.228;2024-02-21T09:01:31;3.65;;;2.83;;
47922;SDS011;33688;44.354;9.228;2024-02-21T09:03:58;3.33;;;2.28;;
47922;SDS011;33688;44.354;9.228;2024-02-21T09:06:25;2.55;;;2.35;;
47922;SDS011;33688;44.354;9.228;2024-02-21T09:08:53;2.08;;;1.88;;
47922;SDS011;33688;44.354;9.228;2024-02-21T09:11:18;2.67;;;2.30;;
47922;SDS011;33688;44.354;9.228;2024-02-21T09:13:45;3.33;;;1.98;;
47922;SDS011;33688;44.354;9.228;2024-02-21T09:16:12;3.55;;;2.28;;
47922;SDS011;33688;44.354;9.228;2024-02-21T09:21:27;2.55;;;2.35;;
47922;SDS011;33688;44.354;9.228;2024-02-21T09:23:54;3.08;;;2.70;;
47922;SDS011;33688;44.354;9.228;2024-02-21T09:26:20;2.92;;;2.63;;
47922;SDS011;33688;44.354;9.228;2024-02-21T09:28:46;4.28;;;2.78;;
47922;SDS011;33688;44.354;9.228;2024-02-21T09:31:12;2.92;;;2.63;;
47922;SDS011;33688;44.354;9.228;2024-02-21T09:33:38;3.90;;;2.97;;
47922;SDS011;33688;44.354;9.228;2024-02-21T09:36:04;5.53;;;2.90;;
47922;SDS011;33688;44.354;9.228;2024-02-21T09:38:31;3.85;;;3.10;;
47922;SDS011;33688;44.354;9.228;2024-02-21T09:41:06;3.38;;;2.58;;
47922;SDS011;33688;44.354;9.228;2024-02-21T09:43:45;3.97;;;2.78;;
47922;SDS011;33688;44.354;9.228;2024-02-21T09:46:17;3.72;;;3.33;;
47922;SDS011;33688;44.354;9.228;2024-02-21T09:51:55;6.50;;;3.00;;
47922;SDS011;33688;44.354;9.228;2024-02-21T09:54:22;3.83;;;3.42;;
47922;SDS011;33688;44.354;9.228;2024-02-21T09:56:48;3.63;;;3.30;;
47922;SDS011;33688;44.354;9.228;2024-02-21T09:59:15;4.25;;;3.10;;
47922;SDS011;33688;44.354;9.228;2024-02-21T10:01:44;3.70;;;3.30;;
47922;SDS011;33688;44.354;9.228;2024-02-21T10:04:12;5.30;;;3.13;;
47922;SDS011;33688;44.354;9.228;2024-02-21T10:06:38;3.88;;;3.30;;
47922;SDS011;33688;44.354;9.228;2024-02-21T10:09:06;4.75;;;3.35;;
47922;SDS011;33688;44.354;9.228;2024-02-21T10:11:32;3.75;;;3.28;;
47922;SDS011;33688;44.354;9.228;2024-02-21T10:14:05;4.78;;;3.50;;
47922;SDS011;33688;44.354;9.228;2024-02-21T10:16:32;4.05;;;3.47;;
47922;SDS011;33688;44.354;9.228;2024-02-21T10:19:00;5.95;;;3.80;;
47922;SDS011;33688;44.354;9.228;2024-02-21T10:21:25;4.32;;;3.92;;
47922;SDS011;33688;44.354;9.228;2024-02-21T10:23:52;5.07;;;3.80;;
47922;SDS011;33688;44.354;9.228;2024-02-21T10:26:18;4.03;;;3.28;;
47922;SDS011;33688;44.354;9.228;2024-02-21T10:28:45;4.65;;;3.50;;
47922;SDS011;33688;44.354;9.228;2024-02-21T10:31:23;4.57;;;3.65;;
47922;SDS011;33688;44.354;9.228;2024-02-21T10:33:58;6.28;;;3.67;;
47922;SDS011;33688;44.354;9.228;2024-02-21T10:36:28;3.78;;;3.47;;
47922;SDS011;33688;44.354;9.228;2024-02-21T10:38:55;4.90;;;3.83;;
47922;SDS011;33688;44.354;9.228;2024-02-21T10:41:21;8.90;;;3.40;;
47922;SDS011;33688;44.354;9.228;2024-02-21T10:43:52;4.38;;;3.33;;
47922;SDS011;33688;44.354;9.228;2024-02-21T10:46:20;3.78;;;3.35;;
47922;SDS011;33688;44.354;9.228;2024-02-21T10:48:54;5.15;;;3.45;;
47922;SDS011;33688;44.354;9.228;2024-02-21T10:51:50;4.78;;;3.85;;
47922;SDS011;33688;44.354;9.228;2024-02-21T10:54:43;4.47;;;4.05;;
47922;SDS011;33688;44.354;9.228;2024-02-21T10:57:19;4.45;;;3.30;;
47922;SDS011;33688;44.354;9.228;2024-02-21T10:59:46;5.18;;;3.33;;
47922;SDS011;33688;44.354;9.228;2024-02-21T11:02:14;6.28;;;3.58;;
47922;SDS011;33688;44.354;9.228;2024-02-21T11:07:10;4.53;;;3.55;;
47922;SDS011;33688;44.354;9.228;2024-02-21T11:09:37;5.53;;;3.20;;
47922;SDS011;33688;44.354;9.228;2024-02-21T11:12:03;4.38;;;3.40;;
47922;SDS011;33688;44.354;9.228;2024-02-21T11:14:32;5.72;;;3.78;;
47922;SDS011;33688;44.354;9.228;2024-02-21T11:17:02;3.72;;;3.30;;
47922;SDS011;33688;44.354;9.228;2024-02-21T11:19:29;4.22;;;3.40;;
47922;SDS011;33688;44.354;9.228;2024-02-21T11:21:56;3.72;;;3.33;;
47922;SDS011;33688;44.354;9.228;2024-02-21T11:24:26;5.88;;;3.63;;
47922;SDS011;33688;44.354;9.228;2024-02-21T11:26:56;4.53;;;3.17;;
47922;SDS011;33688;44.354;9.228;2024-02-21T11:29:33;3.60;;;3.13;;
47922;SDS011;33688;44.354;9.228;2024-02-21T11:34:59;3.58;;;3.13;;
47922;SDS011;33688;44.354;9.228;2024-02-21T11:37:29;5.32;;;3.42;;
47922;SDS011;33688;44.354;9.228;2024-02-21T11:39:59;3.67;;;2.92;;
47922;SDS011;33688;44.354;9.228;2024-02-21T11:42:26;4.95;;;3.70;;
47922;SDS011;33688;44.354;9.228;2024-02-21T11:44:53;4.35;;;3.15;;
47922;SDS011;33688;44.354;9.228;2024-02-21T11:47:22;5.05;;;3.53;;
47922;SDS011;33688;44.354;9.228;2024-02-21T11:49:49;5.68;;;3.10;;
47922;SDS011;33688;44.354;9.228;2024-02-21T11:52:15;4.68;;;3.63;;
47922;SDS011;33688;44.354;9.228;2024-02-21T11:54:44;3.97;;;3.33;;
47922;SDS011;33688;44.354;9.228;2024-02-21T11:57:10;3.50;;;3.10;;
47922;SDS011;33688;44.354;9.228;2024-02-21T11:59:40;4.60;;;3.03;;
47922;SDS011;33688;44.354;9.228;2024-02-21T12:02:06;7.78;;;2.95;;
47922;SDS011;33688;44.354;9.228;2024-02-21T12:04:32;4.72;;;3.30;;
47922;SDS011;33688;44.354;9.228;2024-02-21T12:06:58;3.63;;;3.22;;
47922;SDS011;33688;44.354;9.228;2024-02-21T12:09:25;3.13;;;2.80;;
47922;SDS011;33688;44.354;9.228;2024-02-21T12:11:57;4.22;;;2.88;;
47922;SDS011;33688;44.354;9.228;2024-02-21T12:14:31;3.53;;;3.08;;
47922;SDS011;33688;44.354;9.228;2024-02-21T12:17:00;3.33;;;3.00;;
47922;SDS011;33688;44.354;9.228;2024-02-21T12:19:29;4.97;;;3.10;;
47922;SDS011;33688;44.354;9.228;2024-02-21T12:21:58;3.22;;;2.92;;
47922;SDS011;33688;44.354;9.228;2024-02-21T12:24:27;3.72;;;3.20;;
47922;SDS011;33688;44.354;9.228;2024-02-21T12:26:54;3.15;;;2.85;;
47922;SDS011;33688;44.354;9.228;2024-02-21T12:29:22;4.28;;;3.35;;
47922;SDS011;33688;44.354;9.228;2024-02-21T12:31:51;4.53;;;3.10;;
47922;SDS011;33688;44.354;9.228;2024-02-21T12:34:20;3.58;;;3.15;;
47922;SDS011;33688;44.354;9.228;2024-02-21T12:36:47;5.63;;;2.70;;
47922;SDS011;33688;44.354;9.228;2024-02-21T12:39:14;4.18;;;2.95;;
47922;SDS011;33688;44.354;9.228;2024-02-21T12:41:40;2.83;;;2.60;;
47922;SDS011;33688;44.354;9.228;2024-02-21T12:44:08;3.88;;;3.15;;
47922;SDS011;33688;44.354;9.228;2024-02-21T12:46:34;3.75;;;3.42;;
47922;SDS011;33688;44.354;9.228;2024-02-21T12:49:01;3.17;;;2.85;;
47922;SDS011;33688;44.354;9.228;2024-02-21T12:51:28;3.60;;;2.92;;
47922;SDS011;33688;44.354;9.228;2024-02-21T12:53:57;4.00;;;3.13;;
47922;SDS011;33688;44.354;9.228;2024-02-21T12:56:24;2.53;;;2.17;;
47922;SDS011;33688;44.354;9.228;2024-02-21T12:58:52;3.92;;;2.60;;
47922;SDS011;33688;44.354;9.228;2024-02-21T13:01:19;2.95;;;2.65;;
47922;SDS011;33688;44.354;9.228;2024-02-21T13:03:45;3.33;;;2.65;;
47922;SDS011;33688;44.354;9.228;2024-02-21T13:06:11;4.57;;;2.80;;
47922;SDS011;33688;44.354;9.228;2024-02-21T13:08:38;3.75;;;2.20;;
47922;SDS011;33688;44.354;9.228;2024-02-21T13:11:05;2.55;;;2.25;;
47922;SDS011;33688;44.354;9.228;2024-02-21T13:13:31;2.90;;;2.60;;
47922;SDS011;33688;44.354;9.228;2024-02-21T13:15:57;4.00;;;2.80;;
47922;SDS011;33688;44.354;9.228;2024-02-21T13:18:24;3.05;;;2.60;;
47922;SDS011;33688;44.354;9.228;2024-02-21T13:20:50;3.80;;;3.50;;
47922;SDS011;33688;44.354;9.228;2024-02-21T13:23:16;4.13;;;3.25;;
47922;SDS011;33688;44.354;9.228;2024-02-21T13:25:42;2.90;;;2.55;;
47922;SDS011;33688;44.354;9.228;2024-02-21T13:28:09;3.75;;;2.83;;
47922;SDS011;33688;44.354;9.228;2024-02-21T13:30:36;4.25;;;3.22;;
47922;SDS011;33688;44.354;9.228;2024-02-21T13:33:02;5.93;;;2.75;;
47922;SDS011;33688;44.354;9.228;2024-02-21T13:35:28;3.72;;;3.00;;
47922;SDS011;33688;44.354;9.228;2024-02-21T13:37:54;8.00;;;2.75;;
47922;SDS011;33688;44.354;9.228;2024-02-21T13:40:20;2.63;;;2.42;;
47922;SDS011;33688;44.354;9.228;2024-02-21T13:45:16;3.72;;;3.33;;
47922;SDS011;33688;44.354;9.228;2024-02-21T13:47:43;8.52;;;3.60;;
47922;SDS011;33688;44.354;9.228;2024-02-21T13:50:09;3.72;;;2.90;;
47922;SDS011;33688;44.354;9.228;2024-02-21T13:52:37;3.33;;;2.92;;
47922;SDS011;33688;44.354;9.228;2024-02-21T13:55:03;6.82;;;3.22;;
47922;SDS011;33688;44.354;9.228;2024-02-21T13:57:29;3.70;;;3.40;;
47922;SDS011;33688;44.354;9.228;2024-02-21T13:59:55;3.75;;;3.35;;
47922;SDS011;33688;44.354;9.228;2024-02-21T14:02:20;3.30;;;2.97;;
47922;SDS011;33688;44.354;9.228;2024-02-21T14:04:46;3.67;;;3.38;;
47922;SDS011;33688;44.354;9.228;2024-02-21T14:07:14;3.30;;;3.00;;
47922;SDS011;33688;44.354;9.228;2024-02-21T14:09:39;3.50;;;3.13;;
47922;SDS011;33688;44.354;9.228;2024-02-21T14:12:07;3.63;;;3.28;;
47922;SDS011;33688;44.354;9.228;2024-02-21T14:14:35;5.47;;;3.00;;
47922;SDS011;33688;44.354;9.228;2024-02-21T14:17:02;5.50;;;3.72;;
47922;SDS011;33688;44.354;9.228;2024-02-21T14:19:32;4.10;;;3.53;;
47922;SDS011;33688;44.354;9.228;2024-02-21T14:21:58;3.33;;;2.92;;
47922;SDS011;33688;44.354;9.228;2024-02-21T14:24:24;3.97;;;3.17;;
47922;SDS011;33688;44.354;9.228;2024-02-21T14:26:49;4.68;;;3.90;;
47922;SDS011;33688;44.354;9.228;2024-02-21T14:29:16;6.07;;;3.53;;
47922;SDS011;33688;44.354;9.228;2024-02-21T14:31:42;7.93;;;3.58;;
47922;SDS011;33688;44.354;9.228;2024-02-21T14:34:08;4.20;;;3.30;;
47922;SDS011;33688;44.354;9.228;2024-02-21T14:36:34;4.28;;;3.50;;
47922;SDS011;33688;44.354;9.228;2024-02-21T14:39:01;4.50;;;3.50;;
47922;SDS011;33688;44.354;9.228;2024-02-21T14:41:28;3.97;;;3.58;;
47922;SDS011;33688;44.354;9.228;2024-02-21T14:43:56;7.07;;;3.65;;
47922;SDS011;33688;44.354;9.228;2024-02-21T14:46:25;7.70;;;3.70;;
47922;SDS011;33688;44.354;9.228;2024-02-21T14:48:54;5.38;;;3.45;;
47922;SDS011;33688;44.354;9.228;2024-02-21T14:51:20;5.85;;;4.10;;
47922;SDS011;33688;44.354;9.228;2024-02-21T14:53:47;7.93;;;3.85;;
47922;SDS011;33688;44.354;9.228;2024-02-21T14:56:13;3.92;;;3.55;;
47922;SDS011;33688;44.354;9.228;2024-02-21T14:58:40;7.10;;;4.10;;
47922;SDS011;33688;44.354;9.228;2024-02-21T15:01:07;4.38;;;3.55;;
47922;SDS011;33688;44.354;9.228;2024-02-21T15:03:33;4.13;;;3.72;;